createdAt,value
2023-07-04T00:01:11.067Z,23.18
2023-07-04T00:03:40.522Z,23.14
2023-07-04T00:06:08.616Z,23.10
2023-07-04T00:08:36.203Z,23.08
2023-07-04T00:11:07.638Z,23.07
2023-07-04T00:13:35.815Z,23.03
2023-07-04T00:16:06.734Z,23.01
2023-07-04T00:18:35.530Z,22.99
2023-07-04T00:21:05.305Z,22.96
2023-07-04T00:23:36.310Z,22.94
2023-07-04T00:26:05.753Z,22.90
2023-07-04T00:28:34.582Z,22.89
2023-07-04T00:31:04.597Z,22.86
2023-07-04T00:33:31.985Z,22.84
2023-07-04T00:36:06.478Z,22.82
2023-07-04T00:38:34.944Z,22.81
2023-07-04T00:41:03.022Z,22.82
2023-07-04T00:43:46.652Z,22.83
2023-07-04T00:46:16.486Z,22.85
2023-07-04T00:48:46.293Z,22.83
2023-07-04T00:51:23.178Z,22.79
2023-07-04T00:53:54.438Z,22.74
2023-07-04T00:56:26.928Z,22.72
2023-07-04T00:58:58.084Z,22.68
2023-07-04T01:01:27.334Z,22.70
2023-07-04T01:03:55.803Z,22.74
2023-07-04T01:06:36.805Z,22.74
2023-07-04T01:09:06.751Z,22.67
2023-07-04T01:11:36.084Z,22.65
2023-07-04T01:14:06.402Z,22.63
2023-07-04T01:16:33.836Z,22.63
2023-07-04T01:19:01.389Z,22.64
2023-07-04T01:21:28.933Z,22.63
2023-07-04T01:24:11.950Z,22.59
2023-07-04T01:26:41.052Z,22.56
2023-07-04T01:29:11.128Z,22.52
2023-07-04T01:31:38.402Z,22.49
2023-07-04T01:34:06.739Z,22.48
2023-07-04T01:36:35.578Z,22.50
2023-07-04T01:39:03.584Z,22.48
2023-07-04T01:41:33.346Z,22.45
2023-07-04T01:44:05.634Z,22.41
2023-07-04T01:46:33.942Z,22.40
2023-07-04T01:49:01.259Z,22.41
2023-07-04T01:51:40.232Z,22.41
2023-07-04T01:54:08.324Z,22.39
2023-07-04T01:56:38.365Z,22.37
2023-07-04T01:59:06.102Z,22.33
2023-07-04T02:01:33.480Z,22.31
2023-07-04T02:04:00.689Z,22.25
2023-07-04T02:06:28.266Z,22.19
2023-07-04T02:08:59.482Z,22.19
2023-07-04T02:11:26.841Z,22.19
2023-07-04T02:13:54.618Z,22.22
2023-07-04T02:16:22.184Z,22.26
2023-07-04T02:18:49.767Z,22.23
2023-07-04T02:21:16.937Z,22.19
2023-07-04T02:23:45.255Z,22.17
2023-07-04T02:26:13.662Z,22.19
2023-07-04T02:28:41.308Z,22.23
2023-07-04T02:31:08.678Z,22.27
2023-07-04T02:33:36.652Z,22.30
2023-07-04T02:36:05.334Z,22.31
2023-07-04T02:38:33.060Z,22.33
2023-07-04T02:41:00.285Z,22.36
2023-07-04T02:43:28.204Z,22.39
2023-07-04T02:45:55.998Z,22.41
2023-07-04T02:48:25.411Z,22.40
2023-07-04T02:50:53.377Z,22.40
2023-07-04T02:53:23.320Z,22.40
2023-07-04T02:55:51.589Z,22.39
2023-07-04T02:58:21.039Z,22.36
2023-07-04T03:00:49.475Z,22.32
2023-07-04T03:03:18.520Z,22.31
2023-07-04T03:05:47.156Z,22.31
2023-07-04T03:08:14.873Z,22.31
2023-07-04T03:10:46.905Z,22.31
2023-07-04T03:13:16.255Z,22.32
2023-07-04T03:15:44.082Z,22.32
2023-07-04T03:18:12.256Z,22.34
2023-07-04T03:20:41.029Z,22.33
2023-07-04T03:23:09.275Z,22.30
2023-07-04T03:25:37.962Z,22.34
2023-07-04T03:28:05.725Z,22.35
2023-07-04T03:30:33.011Z,22.35
2023-07-04T03:33:07.022Z,22.38
2023-07-04T03:35:53.282Z,22.45
2023-07-04T03:38:25.925Z,22.51
2023-07-04T03:40:54.109Z,22.55
2023-07-04T03:43:23.450Z,22.60
2023-07-04T03:45:50.587Z,22.63
2023-07-04T03:48:18.204Z,22.68
2023-07-04T03:50:46.124Z,22.74
2023-07-04T03:53:13.342Z,22.80
2023-07-04T03:55:41.081Z,22.85
2023-07-04T03:58:08.284Z,22.89
2023-07-04T04:00:36.116Z,22.91
2023-07-04T04:03:03.542Z,22.91
2023-07-04T04:05:31.016Z,22.92
2023-07-04T04:07:58.379Z,22.95
2023-07-04T04:10:25.541Z,22.98
2023-07-04T04:12:52.967Z,23.03
2023-07-04T04:15:20.157Z,23.06
2023-07-04T04:17:49.278Z,23.07
2023-07-04T04:20:16.466Z,23.07
2023-07-04T04:22:46.845Z,23.10
2023-07-04T04:25:15.671Z,23.12
2023-07-04T04:27:44.870Z,23.13
2023-07-04T04:30:13.584Z,23.14
2023-07-04T04:32:42.387Z,23.17
2023-07-04T04:35:09.976Z,23.21
2023-07-04T04:37:41.444Z,23.24
2023-07-04T04:40:09.737Z,23.31
2023-07-04T04:42:37.111Z,23.37
2023-07-04T04:45:05.674Z,23.42
2023-07-04T04:47:35.804Z,23.46
2023-07-04T04:50:03.684Z,23.53
2023-07-04T04:52:34.590Z,23.58
2023-07-04T04:55:05.008Z,23.62
2023-07-04T04:57:32.255Z,23.69
2023-07-04T05:00:02.282Z,23.73
2023-07-04T05:02:30.603Z,23.74
2023-07-04T05:05:00.182Z,23.76
2023-07-04T05:07:28.207Z,23.76
2023-07-04T05:09:59.283Z,23.77
2023-07-04T05:12:26.834Z,23.77
2023-07-04T05:14:54.958Z,23.79
2023-07-04T05:17:23.180Z,23.80
2023-07-04T05:19:51.154Z,23.84
2023-07-04T05:22:19.229Z,23.88
2023-07-04T05:24:46.681Z,23.90
2023-07-04T05:27:13.985Z,23.91
2023-07-04T05:29:41.268Z,23.92
2023-07-04T05:32:09.456Z,23.95
2023-07-04T05:34:36.936Z,24.01
2023-07-04T05:37:04.781Z,24.09
2023-07-04T05:39:33.119Z,24.17
2023-07-04T05:42:00.287Z,24.21
2023-07-04T05:44:27.758Z,24.28
2023-07-04T05:46:55.556Z,24.36
2023-07-04T05:49:22.770Z,24.42
2023-07-04T05:51:50.034Z,24.46
2023-07-04T05:54:17.240Z,24.51
2023-07-04T05:56:44.545Z,24.55
2023-07-04T05:59:11.864Z,24.59
2023-07-04T06:01:41.571Z,24.64
2023-07-04T06:04:09.424Z,24.69
2023-07-04T06:07:03.794Z,24.75
2023-07-04T06:09:33.961Z,24.82
2023-07-04T06:12:01.112Z,24.91
2023-07-04T06:14:28.964Z,25.00
2023-07-04T06:16:57.097Z,25.05
2023-07-04T06:19:25.052Z,25.12
2023-07-04T06:21:52.860Z,25.19
2023-07-04T06:24:21.330Z,25.26
2023-07-04T06:26:48.877Z,25.33
2023-07-04T06:29:16.291Z,25.37
2023-07-04T06:31:44.625Z,25.40
2023-07-04T06:34:13.043Z,25.44
2023-07-04T06:36:42.111Z,25.50
2023-07-04T06:39:09.538Z,25.56
2023-07-04T06:41:37.044Z,25.64
2023-07-04T06:44:05.890Z,25.70
2023-07-04T06:49:01.117Z,25.82
2023-07-04T06:51:32.132Z,25.88
2023-07-04T06:54:01.251Z,25.92
2023-07-04T06:56:28.579Z,26.00
2023-07-04T06:58:56.355Z,26.07
2023-07-04T07:01:29.344Z,26.13
2023-07-04T07:03:57.511Z,26.17
2023-07-04T07:06:26.414Z,26.21
2023-07-04T07:08:54.408Z,26.26
2023-07-04T07:11:22.926Z,26.32
2023-07-04T07:13:51.592Z,26.41
2023-07-04T07:16:25.165Z,26.50
2023-07-04T07:18:53.644Z,26.55
2023-07-04T07:21:25.252Z,26.62
2023-07-04T07:23:57.267Z,26.69
2023-07-04T07:26:27.116Z,26.78
2023-07-04T07:28:55.530Z,26.87
2023-07-04T07:33:55.697Z,26.98
2023-07-04T07:36:47.697Z,27.04
2023-07-04T07:39:16.664Z,27.08
2023-07-04T07:41:46.790Z,27.18
2023-07-04T07:44:15.134Z,27.23
2023-07-04T07:46:43.204Z,27.28
2023-07-04T07:49:10.573Z,27.33
2023-07-04T07:51:38.795Z,27.40
2023-07-04T07:54:09.613Z,27.48
2023-07-04T07:56:43.128Z,27.56
2023-07-04T07:59:10.537Z,27.61
2023-07-04T08:01:38.726Z,27.69
2023-07-04T08:04:06.497Z,27.79
2023-07-04T08:06:42.563Z,27.89
2023-07-04T08:09:15.306Z,28.01
2023-07-04T08:11:52.680Z,28.11
2023-07-04T08:14:20.154Z,28.19
2023-07-04T08:16:54.923Z,28.23
2023-07-04T08:19:24.736Z,28.26
2023-07-04T08:21:52.757Z,28.36
2023-07-04T08:24:20.178Z,28.45
2023-07-04T08:26:47.764Z,28.48
2023-07-04T08:29:15.548Z,28.52
2023-07-04T08:31:43.180Z,28.58
2023-07-04T08:34:13.393Z,28.62
2023-07-04T08:36:42.524Z,28.71
2023-07-04T08:39:10.703Z,28.77
2023-07-04T08:41:43.838Z,28.84
2023-07-04T08:44:21.725Z,28.90
2023-07-04T08:46:55.805Z,28.96
2023-07-04T08:49:31.057Z,28.98
2023-07-04T08:52:24.266Z,29.03
2023-07-04T08:54:52.140Z,29.15
2023-07-04T08:57:46.752Z,29.19
2023-07-04T09:00:32.796Z,29.21
2023-07-04T09:03:27.827Z,29.25
2023-07-04T09:06:16.643Z,29.33
2023-07-04T09:09:02.720Z,29.42
2023-07-04T09:11:30.127Z,29.50
2023-07-04T09:13:59.678Z,29.55
2023-07-04T09:16:33.753Z,29.61
2023-07-04T09:19:06.406Z,29.69
2023-07-04T09:21:34.092Z,29.77
2023-07-04T09:24:03.022Z,29.82
2023-07-04T09:26:39.573Z,29.87
2023-07-04T09:29:08.395Z,29.92
2023-07-04T09:31:43.165Z,29.93
2023-07-04T09:34:33.772Z,29.96
2023-07-04T09:37:02.705Z,29.99
2023-07-04T09:39:54.996Z,30.06
2023-07-04T09:42:48.491Z,30.19
2023-07-04T09:45:22.426Z,30.22
2023-07-04T09:47:49.789Z,30.24
2023-07-04T09:50:33.734Z,30.17
2023-07-04T09:53:11.465Z,30.12
2023-07-04T09:55:40.819Z,30.12
2023-07-04T09:58:22.559Z,30.19
2023-07-04T10:01:10.219Z,30.31
2023-07-04T10:03:42.922Z,30.42
2023-07-04T10:06:10.542Z,30.55
2023-07-04T10:08:51.335Z,30.63
2023-07-04T10:11:26.233Z,30.74
2023-07-04T10:14:01.815Z,30.81
2023-07-04T10:16:29.242Z,30.85
2023-07-04T10:19:14.123Z,30.88
2023-07-04T10:21:51.960Z,30.93
2023-07-04T10:24:27.239Z,30.96
2023-07-04T10:26:59.701Z,30.99
2023-07-04T10:29:43.960Z,31.00
2023-07-04T10:32:14.781Z,30.99
2023-07-04T10:34:44.288Z,30.97
2023-07-04T10:37:24.436Z,30.95
2023-07-04T10:39:58.477Z,31.02
2023-07-04T10:42:41.141Z,30.99
2023-07-04T10:45:09.793Z,30.97
2023-07-04T10:47:38.838Z,30.90
2023-07-04T10:50:16.278Z,30.84
2023-07-04T10:52:46.281Z,30.79
2023-07-04T10:55:16.796Z,30.77
2023-07-04T10:57:57.787Z,30.82
2023-07-04T11:00:33.224Z,30.91
2023-07-04T11:03:08.065Z,31.00
2023-07-04T11:05:41.672Z,31.00
2023-07-04T11:08:10.289Z,31.00
2023-07-04T11:10:42.095Z,31.04
2023-07-04T11:13:09.437Z,31.00
2023-07-04T11:15:36.800Z,31.01
2023-07-04T11:18:04.024Z,31.07
2023-07-04T11:20:41.702Z,31.09
2023-07-04T11:23:20.475Z,31.11
2023-07-04T11:25:47.855Z,31.18
2023-07-04T11:28:26.603Z,31.30
2023-07-04T11:31:13.234Z,31.38
2023-07-04T11:33:45.387Z,31.45
2023-07-04T11:36:24.976Z,31.53
2023-07-04T11:38:55.405Z,31.58
2023-07-04T11:41:32.683Z,31.51
2023-07-04T11:44:13.920Z,31.43
2023-07-04T11:46:42.526Z,31.37
2023-07-04T11:49:18.616Z,31.31
2023-07-04T11:51:45.925Z,31.20
2023-07-04T11:54:13.072Z,31.08
2023-07-04T11:56:43.325Z,30.97
2023-07-04T11:59:18.099Z,30.95
2023-07-04T12:01:56.413Z,30.97
2023-07-04T12:04:42.134Z,30.85
2023-07-04T12:07:11.996Z,30.80
2023-07-04T12:09:46.678Z,30.79
2023-07-04T12:12:21.600Z,30.87
2023-07-04T12:14:57.919Z,30.96
2023-07-04T12:17:25.668Z,31.02
2023-07-04T12:20:05.038Z,31.04
2023-07-04T12:22:32.871Z,31.16
2023-07-04T12:25:14.092Z,31.29
2023-07-04T12:27:43.129Z,31.37
2023-07-04T12:30:12.867Z,31.48
2023-07-04T12:32:41.079Z,31.54
2023-07-04T12:37:41.231Z,31.71
2023-07-04T12:40:15.164Z,31.76
2023-07-04T12:42:43.659Z,31.83
2023-07-04T12:45:12.049Z,31.89
2023-07-04T12:47:40.297Z,31.99
2023-07-04T12:50:08.873Z,32.06
2023-07-04T12:52:37.798Z,32.13
2023-07-04T12:55:06.296Z,32.17
2023-07-04T12:57:33.904Z,32.20
2023-07-04T13:00:11.770Z,32.23
2023-07-04T13:02:40.164Z,32.24
2023-07-04T13:05:08.059Z,32.33
2023-07-04T13:07:35.538Z,32.35
2023-07-04T13:10:04.456Z,32.23
2023-07-04T13:12:34.976Z,32.24
2023-07-04T13:15:25.715Z,32.26
2023-07-04T13:18:01.532Z,32.32
2023-07-04T13:20:33.996Z,32.29
2023-07-04T13:25:56.420Z,32.41
2023-07-04T13:33:54.956Z,32.48
2023-07-04T13:36:44.550Z,32.52
2023-07-04T13:41:44.392Z,32.47
2023-07-04T13:46:43.345Z,32.38
2023-07-04T13:49:10.614Z,32.40
2023-07-04T13:51:38.154Z,32.38
2023-07-04T13:54:05.775Z,32.34
2023-07-04T13:56:35.083Z,32.38
2023-07-04T13:59:02.490Z,32.43
2023-07-04T14:06:31.036Z,32.51
2023-07-04T14:08:58.344Z,32.53
2023-07-04T14:11:25.459Z,32.54
2023-07-04T14:14:00.626Z,32.60
2023-07-04T14:19:56.880Z,32.64
2023-07-04T14:21:47.875Z,32.55
2023-07-04T14:24:15.093Z,32.49
2023-07-04T14:26:42.527Z,32.50
2023-07-04T14:29:09.717Z,32.54
2023-07-04T14:31:37.701Z,32.62
2023-07-04T14:34:05.084Z,32.69
2023-07-04T14:36:33.189Z,32.73
2023-07-04T14:39:01.300Z,32.74
2023-07-04T14:44:02.588Z,32.78
2023-07-04T14:46:30.573Z,32.81
2023-07-04T14:48:58.178Z,32.76
2023-07-04T14:51:25.469Z,32.74
2023-07-04T14:53:52.616Z,32.77
2023-07-04T14:56:20.270Z,32.76
2023-07-04T14:58:47.603Z,32.73
2023-07-04T15:01:19.448Z,32.72
2023-07-04T15:03:46.756Z,32.67
2023-07-04T15:06:14.280Z,32.64
2023-07-04T15:08:42.025Z,32.57
2023-07-04T15:11:09.420Z,32.54
2023-07-04T15:13:37.383Z,32.55
2023-07-04T15:16:07.371Z,32.53
2023-07-04T15:18:36.348Z,32.53
2023-07-04T15:21:04.546Z,32.49
2023-07-04T15:23:34.264Z,32.45
2023-07-04T15:26:19.469Z,32.40
2023-07-04T15:28:49.419Z,32.35
2023-07-04T15:31:16.979Z,32.31
2023-07-04T15:33:44.603Z,32.22
2023-07-04T15:36:12.300Z,32.17
2023-07-04T15:38:39.634Z,32.13
2023-07-04T15:41:10.851Z,32.11
2023-07-04T15:43:39.222Z,32.06
2023-07-04T15:46:12.318Z,32.05
2023-07-04T15:48:40.299Z,32.00
2023-07-04T15:51:08.960Z,31.98
2023-07-04T15:53:36.198Z,31.93
2023-07-04T15:56:05.181Z,31.90
2023-07-04T15:58:32.437Z,31.88
2023-07-04T16:01:01.609Z,31.84
2023-07-04T16:03:29.658Z,31.81
2023-07-04T16:05:58.078Z,31.77
2023-07-04T16:08:26.101Z,31.75
2023-07-04T16:10:57.978Z,31.75
2023-07-04T16:13:25.625Z,31.71
2023-07-04T16:15:53.282Z,31.70
2023-07-04T16:18:21.909Z,31.67
2023-07-04T16:20:49.160Z,31.63
2023-07-04T16:23:16.518Z,31.58
2023-07-04T16:25:44.965Z,31.51
2023-07-04T16:28:12.428Z,31.47
2023-07-04T16:30:41.572Z,31.39
2023-07-04T16:33:08.903Z,31.30
2023-07-04T16:35:38.593Z,31.26
2023-07-04T16:38:06.256Z,31.23
2023-07-04T16:40:34.662Z,31.19
2023-07-04T16:43:02.320Z,31.14
2023-07-04T16:45:29.741Z,31.07
2023-07-04T16:47:57.338Z,31.01
2023-07-04T16:50:31.429Z,30.95
2023-07-04T16:53:00.923Z,30.92
2023-07-04T16:55:29.270Z,30.90
2023-07-04T16:57:56.549Z,30.89
2023-07-04T17:00:24.037Z,30.89
2023-07-04T17:02:51.617Z,30.81
2023-07-04T17:05:19.007Z,30.75
2023-07-04T17:07:46.600Z,30.67
2023-07-04T17:10:13.978Z,30.58
2023-07-04T17:12:41.176Z,30.50
2023-07-04T17:15:09.318Z,30.43
2023-07-04T17:17:36.988Z,30.40
2023-07-04T17:20:04.827Z,30.38
2023-07-04T17:22:32.836Z,30.36
2023-07-04T17:25:12.969Z,30.36
2023-07-04T17:27:42.619Z,30.28
2023-07-04T17:30:10.813Z,30.25
2023-07-04T17:32:41.235Z,30.20
2023-07-04T17:35:10.535Z,30.17
2023-07-04T17:37:38.247Z,30.12
2023-07-04T17:40:06.007Z,30.09
2023-07-04T17:42:33.869Z,30.03
2023-07-04T17:45:01.018Z,29.95
2023-07-04T17:47:28.998Z,29.88
2023-07-04T17:49:57.004Z,29.82
2023-07-04T17:52:25.410Z,29.74
2023-07-04T17:54:52.666Z,29.68
2023-07-04T17:57:27.702Z,29.62
2023-07-04T17:59:56.260Z,29.54
2023-07-04T18:02:23.869Z,29.50
2023-07-04T18:04:55.540Z,29.43
2023-07-04T18:07:23.615Z,29.36
2023-07-04T18:09:52.324Z,29.29
2023-07-04T18:12:20.979Z,29.21
2023-07-04T18:14:48.440Z,29.13
2023-07-04T18:17:16.239Z,29.05
2023-07-04T18:19:44.403Z,28.98
2023-07-04T18:22:11.842Z,28.90
2023-07-04T18:24:39.417Z,28.83
2023-07-04T18:27:06.952Z,28.75
2023-07-04T18:29:34.645Z,28.68
2023-07-04T18:32:03.861Z,28.61
2023-07-04T18:34:31.514Z,28.55
2023-07-04T18:36:58.889Z,28.50
2023-07-04T18:39:26.474Z,28.42
2023-07-04T18:41:54.007Z,28.37
2023-07-04T18:44:21.661Z,28.31
2023-07-04T18:46:49.814Z,28.25
2023-07-04T18:49:17.586Z,28.20
2023-07-04T18:51:44.938Z,28.13
2023-07-04T18:54:15.891Z,28.08
2023-07-04T18:56:44.008Z,28.02
2023-07-04T18:59:14.256Z,27.98
2023-07-04T19:01:43.444Z,27.94
2023-07-04T19:04:11.046Z,27.90
2023-07-04T19:06:38.886Z,27.86
2023-07-04T19:09:06.734Z,27.81
2023-07-04T19:11:40.423Z,27.76
2023-07-04T19:14:21.743Z,27.73
2023-07-04T19:16:54.287Z,27.65
2023-07-04T19:19:32.973Z,27.64
2023-07-04T19:22:05.695Z,27.61
2023-07-04T19:24:36.746Z,27.58
2023-07-04T19:27:04.053Z,27.56
2023-07-04T19:29:33.163Z,27.51
2023-07-04T19:32:01.138Z,27.49
2023-07-04T19:34:30.496Z,27.46
2023-07-04T19:36:58.641Z,27.42
2023-07-04T19:39:26.412Z,27.37
2023-07-04T19:41:53.603Z,27.33
2023-07-04T19:44:20.929Z,27.29
2023-07-04T19:46:48.152Z,27.25
2023-07-04T19:49:23.901Z,27.20
2023-07-04T19:51:56.185Z,27.15
2023-07-04T19:54:28.687Z,27.11
2023-07-04T19:56:57.533Z,27.08
2023-07-04T19:59:36.397Z,27.03
2023-07-04T20:02:14.249Z,27.00
2023-07-04T20:04:54.636Z,26.96
2023-07-04T20:07:41.803Z,26.91
2023-07-04T20:10:21.246Z,26.86
2023-07-04T20:13:02.642Z,26.82
2023-07-04T20:15:40.700Z,26.80
2023-07-04T20:18:08.589Z,26.76
2023-07-04T20:20:42.172Z,26.57
2023-07-04T20:23:09.400Z,26.61
2023-07-04T20:25:47.008Z,26.60
2023-07-04T20:28:23.605Z,26.58
2023-07-04T20:31:00.790Z,26.54
2023-07-04T20:33:33.922Z,26.38
2023-07-04T20:36:01.794Z,26.43
2023-07-04T20:38:29.316Z,26.43
2023-07-04T20:41:01.823Z,26.42
2023-07-04T20:43:29.143Z,26.38
2023-07-04T20:45:56.680Z,26.35
2023-07-04T20:48:24.395Z,26.33
2023-07-04T20:50:53.336Z,26.30
2023-07-04T20:53:21.922Z,26.28
2023-07-04T20:55:49.842Z,26.26
2023-07-04T20:58:18.311Z,26.23
2023-07-04T21:00:47.405Z,26.20
2023-07-04T21:03:14.800Z,26.18
2023-07-04T21:05:42.317Z,26.16
2023-07-04T21:08:09.721Z,26.12
2023-07-04T21:10:38.877Z,26.11
2023-07-04T21:13:07.032Z,26.08
2023-07-04T21:15:35.002Z,26.05
2023-07-04T21:18:02.474Z,26.03
2023-07-04T21:20:30.243Z,26.02
2023-07-04T21:22:57.569Z,25.99
2023-07-04T21:25:24.832Z,25.98
2023-07-04T21:27:52.754Z,25.95
2023-07-04T21:30:20.073Z,25.93
2023-07-04T21:32:48.126Z,25.91
2023-07-04T21:35:15.611Z,25.89
2023-07-04T21:37:43.151Z,25.86
2023-07-04T21:40:11.000Z,25.85
2023-07-04T21:42:38.661Z,25.82
2023-07-04T21:45:07.306Z,25.81
2023-07-04T21:47:42.910Z,25.80
2023-07-04T21:50:12.135Z,25.78
2023-07-04T21:52:40.880Z,25.76
2023-07-04T21:55:10.844Z,25.75
2023-07-04T21:57:40.474Z,25.73
2023-07-04T22:00:09.178Z,25.71
2023-07-04T22:02:36.705Z,25.68
2023-07-04T22:05:04.390Z,25.68
2023-07-04T22:07:32.158Z,25.67
2023-07-04T22:09:59.857Z,25.67
2023-07-04T22:12:27.155Z,25.66
2023-07-04T22:14:54.480Z,25.64
2023-07-04T22:17:21.693Z,25.62
2023-07-04T22:19:48.875Z,25.62
2023-07-04T22:22:16.160Z,25.60
2023-07-04T22:24:44.378Z,25.60
2023-07-04T22:27:11.645Z,25.57
2023-07-04T22:29:38.760Z,25.56
2023-07-04T22:32:07.476Z,25.56
2023-07-04T22:34:34.719Z,25.54
2023-07-04T22:37:02.120Z,25.51
2023-07-04T22:39:29.842Z,25.50
2023-07-04T22:42:02.557Z,25.49
2023-07-04T22:44:30.376Z,25.47
2023-07-04T22:46:57.731Z,25.44
2023-07-04T22:49:25.061Z,25.41
2023-07-04T22:51:52.573Z,25.39
2023-07-04T22:54:19.754Z,25.39
2023-07-04T22:56:48.122Z,25.37
2023-07-04T22:59:15.389Z,25.34
2023-07-04T23:01:42.949Z,25.32
2023-07-04T23:04:10.386Z,25.28
2023-07-04T23:06:38.669Z,25.26
2023-07-04T23:09:09.065Z,25.24
2023-07-04T23:11:36.502Z,25.21
2023-07-04T23:14:03.928Z,25.18
2023-07-04T23:16:32.242Z,25.16
2023-07-04T23:19:00.347Z,25.13
2023-07-04T23:21:27.664Z,25.12
2023-07-04T23:23:55.069Z,25.08
2023-07-04T23:26:26.494Z,25.08
2023-07-04T23:28:54.317Z,25.05
2023-07-04T23:31:22.248Z,25.03
2023-07-04T23:33:51.031Z,25.01
2023-07-04T23:36:19.211Z,24.99
2023-07-04T23:38:50.255Z,24.99
2023-07-04T23:41:20.583Z,24.95
2023-07-04T23:43:48.764Z,24.92
2023-07-04T23:46:15.988Z,24.89
2023-07-04T23:48:43.261Z,24.88
2023-07-04T23:51:10.687Z,24.87
2023-07-04T23:53:38.952Z,24.86
2023-07-04T23:56:06.099Z,24.83
2023-07-04T23:58:33.890Z,24.80
